Main page
METAR-TAF:

METAR-TAF

Airports :

Driggs–Reed Memorial Airport

Driggs, Idaho, United States

latitude: 43-44-33N, longitude: 111-05-51W, elevation: 6229 ft

Current weather observation

The report was made 37 minutes ago, at 20:56 UTC
Wind 5 mph from the South/Southwest
Temperature 50°F
Humidity 57%
Pressure 30.41 in. Hg
Visibility: 10 miles
Few clouds at a height of 3700 ft
Broken clouds at a height of 4400 ft
Overcast at a height of 7000 ft

METAR: KDIJ 282056Z AUTO 20004KT 10SM FEW037 BKN044 OVC070 10/02 A3041 RMK AO2 SLP292 T01000017 56007

Time: 15:33 (21:33 UTC)

Forecast

The report was made 4 hours and 13 minutes ago, at 17:20 UTC
Forecast valid from 28 at 18 UTC to 29 at 18 UTC
Wind 14 mph from the South
Visibility: 6 miles
Broken clouds at a height of 5000 ft
From 29 at 0200 UTC
Wind 9 mph from the South/Southeast
Visibility: 6 miles
Scattered clouds at a height of 5000 ft

TAF: KDIJ 281720Z 2818/2918 18012KT P6SM BKN050 FM290200 16008KT P6SM SCT050 AMD LTD TO CLD VIS AND WIND

Weather observations and forecasts of more than 4000 airports (METAR and TAF reports).

The available stations are represented by yellow and red dots on the map.

Hover mouse over dot to see the name of the station.

Then click to see weather observations and forecasts.

To change the map : click on the green buttons with a black cross to zoom in, on the green button with a dash to zoom out, or on the green arrows for adjacent maps.


METAR-TAF: